RYR9SE EGSS-EKAH
Flight info
| Callsign | RYR9SE |
|---|---|
| Flight time | 1h 37m |
| Altitude | 37000 |
| Route | CLN DCT EFMIH M604 GIVPO DCT LARGA DCT SOPTO P144 GOLUM N866 AMRAM DCT INTET T55 LUTUS |
| Aircraft | B738/M-SDE2E3FGHIRWXY/LB1 |
Departure
| Time | 2026-05-06 17:08 |
|---|---|
| Airport | London Stansted Airport (EGSS) |
Arrival
| Time | 2026-05-06 18:45 |
|---|---|
| Airport | Aarhus Airport (EKAH) |
| Time | Latitude | Longitude | Altitude | Speed | Heading |
|---|---|---|---|---|---|
| 2026-05-06 16:47 | 51.89197 | 0.25707 | 347 ft | 0 kts | 221° |
| 2026-05-06 16:58 | 51.89199 | 0.25711 | 346 ft | 2 kts | 221° |
| 2026-05-06 16:58 | 51.89211 | 0.25727 | 347 ft | 2 kts | 227° |
| 2026-05-06 16:58 | 51.89217 | 0.25748 | 347 ft | 2 kts | 258° |
| 2026-05-06 16:58 | 51.89218 | 0.25773 | 347 ft | 2 kts | 283° |
| 2026-05-06 16:59 | 51.89212 | 0.25794 | 347 ft | 1 kts | 308° |
| 2026-05-06 16:59 | 51.89207 | 0.25802 | 347 ft | 1 kts | 315° |
| 2026-05-06 16:59 | 51.89206 | 0.25805 | 347 ft | 0 kts | 313° |
| 2026-05-06 17:02 | 51.89207 | 0.25803 | 347 ft | 1 kts | 313° |
| 2026-05-06 17:02 | 51.89261 | 0.25710 | 347 ft | 20 kts | 313° |
| 2026-05-06 17:02 | 51.89323 | 0.25499 | 348 ft | 22 kts | 232° |
| 2026-05-06 17:02 | 51.89205 | 0.25320 | 345 ft | 26 kts | 223° |
| 2026-05-06 17:03 | 51.89065 | 0.25109 | 342 ft | 27 kts | 223° |
| 2026-05-06 17:03 | 51.88921 | 0.24893 | 340 ft | 28 kts | 223° |
| 2026-05-06 17:03 | 51.88777 | 0.24677 | 338 ft | 28 kts | 222° |
| 2026-05-06 17:03 | 51.88632 | 0.24460 | 337 ft | 29 kts | 223° |
| 2026-05-06 17:04 | 51.88485 | 0.24237 | 338 ft | 28 kts | 223° |
| 2026-05-06 17:04 | 51.88340 | 0.24022 | 340 ft | 27 kts | 223° |
| 2026-05-06 17:04 | 51.88201 | 0.23814 | 341 ft | 26 kts | 223° |
| 2026-05-06 17:04 | 51.88069 | 0.23614 | 343 ft | 27 kts | 223° |
| 2026-05-06 17:05 | 51.87926 | 0.23401 | 343 ft | 28 kts | 223° |
| 2026-05-06 17:05 | 51.87783 | 0.23186 | 343 ft | 27 kts | 222° |
| 2026-05-06 17:05 | 51.87769 | 0.22965 | 342 ft | 23 kts | 313° |
| 2026-05-06 17:05 | 51.87880 | 0.22777 | 341 ft | 22 kts | 313° |
| 2026-05-06 17:06 | 51.87987 | 0.22703 | 341 ft | 16 kts | 53° |
| 2026-05-06 17:06 | 51.88027 | 0.22771 | 341 ft | 0 kts | 42° |
| 2026-05-06 17:07 | 51.88148 | 0.22951 | 342 ft | 63 kts | 42° |
| 2026-05-06 17:07 | 51.88678 | 0.23745 | 340 ft | 142 kts | 43° |
| 2026-05-06 17:07 | 51.89489 | 0.25008 | 747 ft | 174 kts | 41° |
| 2026-05-06 17:08 | 51.90331 | 0.26293 | 1663 ft | 178 kts | 41° |
| 2026-05-06 17:08 | 51.91226 | 0.27618 | 2514 ft | 179 kts | 43° |
| 2026-05-06 17:08 | 51.91892 | 0.29344 | 3234 ft | 187 kts | 73° |
| 2026-05-06 17:08 | 51.91864 | 0.31434 | 4024 ft | 194 kts | 105° |
| 2026-05-06 17:09 | 51.91286 | 0.33491 | 4539 ft | 214 kts | 113° |
| 2026-05-06 17:09 | 51.90577 | 0.35753 | 4983 ft | 238 kts | 115° |
| 2026-05-06 17:09 | 51.89756 | 0.38285 | 4751 ft | 269 kts | 115° |
| 2026-05-06 17:09 | 51.88900 | 0.41029 | 4979 ft | 276 kts | 114° |
| 2026-05-06 17:10 | 51.88052 | 0.43864 | 5647 ft | 280 kts | 114° |
| 2026-05-06 17:10 | 51.87217 | 0.46702 | 5978 ft | 276 kts | 113° |
| 2026-05-06 17:10 | 51.86382 | 0.49557 | 6529 ft | 287 kts | 114° |
| 2026-05-06 17:10 | 51.85545 | 0.52417 | 7671 ft | 281 kts | 114° |
| 2026-05-06 17:11 | 51.84715 | 0.55245 | 8564 ft | 284 kts | 114° |
| 2026-05-06 17:11 | 51.83861 | 0.58144 | 9327 ft | 290 kts | 114° |
| 2026-05-06 17:11 | 51.83086 | 0.61196 | 10109 ft | 295 kts | 103° |
| 2026-05-06 17:11 | 51.82847 | 0.64540 | 10676 ft | 306 kts | 87° |
| 2026-05-06 17:12 | 51.82968 | 0.67992 | 11148 ft | 321 kts | 84° |
| 2026-05-06 17:12 | 51.83175 | 0.71723 | 11647 ft | 337 kts | 84° |
| 2026-05-06 17:12 | 51.83378 | 0.75542 | 12259 ft | 347 kts | 84° |
| 2026-05-06 17:12 | 51.83559 | 0.79456 | 12934 ft | 353 kts | 85° |
| 2026-05-06 17:13 | 51.83723 | 0.83414 | 13730 ft | 358 kts | 85° |
| 2026-05-06 17:13 | 51.83878 | 0.87441 | 14461 ft | 363 kts | 85° |
| 2026-05-06 17:13 | 51.84031 | 0.91557 | 15195 ft | 367 kts | 85° |
| 2026-05-06 17:13 | 51.84180 | 0.95654 | 15916 ft | 372 kts | 86° |
| 2026-05-06 17:14 | 51.84331 | 0.99853 | 16633 ft | 375 kts | 86° |
| 2026-05-06 17:14 | 51.84483 | 1.04086 | 17336 ft | 379 kts | 86° |
| 2026-05-06 17:14 | 51.84749 | 1.08317 | 18021 ft | 383 kts | 79° |
| 2026-05-06 17:14 | 51.85491 | 1.12424 | 18633 ft | 386 kts | 63° |
| 2026-05-06 17:15 | 51.86950 | 1.16047 | 19286 ft | 387 kts | 47° |
| 2026-05-06 17:15 | 51.88878 | 1.19053 | 19902 ft | 388 kts | 37° |
| 2026-05-06 17:15 | 51.91087 | 1.21641 | 20518 ft | 391 kts | 32° |
| 2026-05-06 17:15 | 51.93361 | 1.23983 | 21085 ft | 395 kts | 30° |
| 2026-05-06 17:16 | 51.95718 | 1.26299 | 21667 ft | 399 kts | 29° |
| 2026-05-06 17:16 | 51.98122 | 1.28644 | 22209 ft | 404 kts | 29° |
| 2026-05-06 17:16 | 52.00512 | 1.30999 | 22791 ft | 407 kts | 29° |
| 2026-05-06 17:16 | 52.02935 | 1.33422 | 23333 ft | 412 kts | 30° |
| 2026-05-06 17:17 | 52.05369 | 1.35886 | 23868 ft | 415 kts | 30° |
| 2026-05-06 17:17 | 52.07814 | 1.38385 | 24423 ft | 418 kts | 30° |
| 2026-05-06 17:17 | 52.10272 | 1.40914 | 24936 ft | 422 kts | 30° |
| 2026-05-06 17:17 | 52.12799 | 1.43527 | 25458 ft | 425 kts | 30° |
| 2026-05-06 17:18 | 52.15305 | 1.46126 | 25952 ft | 428 kts | 30° |
| 2026-05-06 17:18 | 52.17800 | 1.48720 | 26432 ft | 431 kts | 31° |
| 2026-05-06 17:18 | 52.20332 | 1.51356 | 26921 ft | 434 kts | 31° |
| 2026-05-06 17:18 | 52.22874 | 1.54008 | 27386 ft | 437 kts | 31° |
| 2026-05-06 17:19 | 52.25443 | 1.56692 | 27841 ft | 440 kts | 31° |
| 2026-05-06 17:19 | 52.28006 | 1.59373 | 28301 ft | 442 kts | 31° |
| 2026-05-06 17:19 | 52.30611 | 1.62101 | 28733 ft | 445 kts | 31° |
| 2026-05-06 17:19 | 52.33199 | 1.64815 | 29154 ft | 448 kts | 31° |
| 2026-05-06 17:20 | 52.35841 | 1.67589 | 29559 ft | 451 kts | 31° |
| 2026-05-06 17:20 | 52.38485 | 1.70370 | 30084 ft | 451 kts | 31° |
| 2026-05-06 17:20 | 52.41087 | 1.73112 | 30752 ft | 447 kts | 31° |
| 2026-05-06 17:20 | 52.43702 | 1.75872 | 31230 ft | 447 kts | 31° |
| 2026-05-06 17:21 | 52.46308 | 1.78625 | 31732 ft | 446 kts | 31° |
| 2026-05-06 17:21 | 52.48900 | 1.81367 | 32185 ft | 445 kts | 31° |
| 2026-05-06 17:21 | 52.51480 | 1.84101 | 32632 ft | 444 kts | 31° |
| 2026-05-06 17:21 | 52.54068 | 1.86883 | 33069 ft | 444 kts | 33° |
| 2026-05-06 17:22 | 52.56532 | 1.89862 | 33473 ft | 444 kts | 37° |
| 2026-05-06 17:22 | 52.58869 | 1.93188 | 33939 ft | 443 kts | 41° |
| 2026-05-06 17:22 | 52.61053 | 1.96656 | 34296 ft | 443 kts | 44° |
| 2026-05-06 17:22 | 52.63227 | 2.00312 | 34669 ft | 443 kts | 45° |
| 2026-05-06 17:23 | 52.65322 | 2.03932 | 35023 ft | 442 kts | 45° |
| 2026-05-06 17:23 | 52.67438 | 2.07621 | 35267 ft | 442 kts | 45° |
| 2026-05-06 17:23 | 52.69539 | 2.11290 | 35514 ft | 442 kts | 45° |
| 2026-05-06 17:23 | 52.71635 | 2.14948 | 35721 ft | 443 kts | 45° |
| 2026-05-06 17:24 | 52.73755 | 2.18638 | 35975 ft | 442 kts | 45° |
| 2026-05-06 17:24 | 52.75859 | 2.22296 | 36180 ft | 443 kts | 45° |
| 2026-05-06 17:24 | 52.77955 | 2.25935 | 36379 ft | 443 kts | 45° |
| 2026-05-06 17:24 | 52.80076 | 2.29617 | 36614 ft | 442 kts | 45° |
| 2026-05-06 17:25 | 52.82203 | 2.33307 | 36824 ft | 442 kts | 45° |
| 2026-05-06 17:25 | 52.84311 | 2.36966 | 36963 ft | 442 kts | 45° |
| 2026-05-06 17:25 | 52.86432 | 2.40651 | 36981 ft | 445 kts | 45° |
| 2026-05-06 17:26 | 52.90689 | 2.48057 | 36983 ft | 448 kts | 45° |
| 2026-05-06 17:26 | 52.94984 | 2.55548 | 36983 ft | 443 kts | 44° |
| 2026-05-06 17:27 | 52.99494 | 2.62348 | 36987 ft | 441 kts | 33° |
| 2026-05-06 17:27 | 53.04784 | 2.67523 | 36990 ft | 443 kts | 25° |
| 2026-05-06 17:28 | 53.10251 | 2.71966 | 36989 ft | 441 kts | 24° |
| 2026-05-06 17:28 | 53.15857 | 2.76431 | 36992 ft | 446 kts | 24° |
| 2026-05-06 17:29 | 53.21377 | 2.80919 | 36990 ft | 440 kts | 24° |
| 2026-05-06 17:29 | 53.26832 | 2.85433 | 36990 ft | 443 kts | 25° |
| 2026-05-06 17:30 | 53.32366 | 2.89963 | 36992 ft | 447 kts | 24° |
| 2026-05-06 17:30 | 53.38023 | 2.94382 | 36993 ft | 446 kts | 23° |
| 2026-05-06 17:31 | 53.43630 | 2.98732 | 36998 ft | 448 kts | 23° |
| 2026-05-06 17:31 | 53.49219 | 3.03099 | 36998 ft | 446 kts | 23° |
| 2026-05-06 17:32 | 53.54796 | 3.07488 | 36995 ft | 441 kts | 23° |
| 2026-05-06 17:32 | 53.60402 | 3.11920 | 37001 ft | 449 kts | 23° |
| 2026-05-06 17:33 | 53.66031 | 3.16390 | 37002 ft | 451 kts | 23° |
| 2026-05-06 17:33 | 53.71687 | 3.20900 | 36989 ft | 448 kts | 23° |
| 2026-05-06 17:34 | 53.77222 | 3.25327 | 36999 ft | 441 kts | 23° |
| 2026-05-06 17:34 | 53.82798 | 3.29795 | 37004 ft | 446 kts | 23° |
| 2026-05-06 17:35 | 53.88386 | 3.34284 | 36997 ft | 447 kts | 23° |
| 2026-05-06 17:35 | 53.94012 | 3.38822 | 36997 ft | 447 kts | 23° |
| 2026-05-06 17:36 | 54.02324 | 3.45551 | 37000 ft | 447 kts | 23° |
| 2026-05-06 17:36 | 54.07943 | 3.50115 | 36996 ft | 446 kts | 23° |
| 2026-05-06 17:37 | 54.13280 | 3.54466 | 36998 ft | 447 kts | 23° |
| 2026-05-06 17:37 | 54.18853 | 3.59020 | 36997 ft | 444 kts | 23° |
| 2026-05-06 17:38 | 54.24427 | 3.63589 | 37010 ft | 449 kts | 23° |
| 2026-05-06 17:38 | 54.30083 | 3.68238 | 37009 ft | 450 kts | 24° |
| 2026-05-06 17:39 | 54.35762 | 3.72921 | 37011 ft | 447 kts | 24° |
| 2026-05-06 17:39 | 54.41323 | 3.77525 | 37015 ft | 446 kts | 24° |
| 2026-05-06 17:40 | 54.46962 | 3.82201 | 37013 ft | 453 kts | 24° |
| 2026-05-06 17:40 | 54.52583 | 3.86880 | 37010 ft | 453 kts | 23° |
| 2026-05-06 17:41 | 54.58264 | 3.91625 | 37017 ft | 451 kts | 23° |
| 2026-05-06 17:41 | 54.63852 | 3.96305 | 37016 ft | 452 kts | 23° |
| 2026-05-06 17:42 | 54.69503 | 4.01051 | 37016 ft | 447 kts | 24° |
| 2026-05-06 17:42 | 54.75031 | 4.05710 | 37024 ft | 448 kts | 23° |
| 2026-05-06 17:43 | 54.80661 | 4.10464 | 37023 ft | 452 kts | 23° |
| 2026-05-06 17:43 | 54.86154 | 4.15859 | 37026 ft | 457 kts | 34° |
| 2026-05-06 17:44 | 54.90888 | 4.23227 | 37026 ft | 464 kts | 44° |
| 2026-05-06 17:44 | 54.95257 | 4.31464 | 37025 ft | 465 kts | 46° |
| 2026-05-06 17:45 | 54.99499 | 4.39758 | 37021 ft | 455 kts | 46° |
| 2026-05-06 17:45 | 55.03751 | 4.48053 | 37021 ft | 460 kts | 46° |
| 2026-05-06 17:46 | 55.08013 | 4.56309 | 37019 ft | 458 kts | 46° |
| 2026-05-06 17:46 | 55.12254 | 4.64495 | 37018 ft | 453 kts | 46° |
| 2026-05-06 17:47 | 55.16462 | 4.72615 | 37013 ft | 457 kts | 46° |
| 2026-05-06 17:47 | 55.20723 | 4.80851 | 37016 ft | 456 kts | 46° |
| 2026-05-06 17:48 | 55.25001 | 4.89143 | 37011 ft | 461 kts | 46° |
| 2026-05-06 17:48 | 55.29280 | 4.97467 | 37012 ft | 460 kts | 46° |
| 2026-05-06 17:49 | 55.33565 | 5.05833 | 37014 ft | 463 kts | 46° |
| 2026-05-06 17:49 | 55.37829 | 5.14187 | 37008 ft | 456 kts | 46° |
| 2026-05-06 17:50 | 55.42075 | 5.22531 | 37011 ft | 463 kts | 46° |
| 2026-05-06 17:50 | 55.46223 | 5.31225 | 37007 ft | 461 kts | 52° |
| 2026-05-06 17:51 | 55.49840 | 5.40505 | 37014 ft | 462 kts | 56° |
| 2026-05-06 17:51 | 55.53265 | 5.49910 | 37009 ft | 457 kts | 56° |
| 2026-05-06 17:52 | 55.56705 | 5.59414 | 37007 ft | 464 kts | 57° |
| 2026-05-06 17:52 | 55.59259 | 5.69822 | 37004 ft | 461 kts | 73° |
| 2026-05-06 17:53 | 55.61032 | 5.80817 | 36997 ft | 464 kts | 76° |
| 2026-05-06 17:53 | 55.62677 | 5.91670 | 36996 ft | 458 kts | 75° |
| 2026-05-06 17:54 | 55.64379 | 6.02564 | 37003 ft | 462 kts | 75° |
| 2026-05-06 17:54 | 55.66125 | 6.13437 | 37006 ft | 463 kts | 74° |
| 2026-05-06 17:55 | 55.67876 | 6.24185 | 37003 ft | 454 kts | 74° |
| 2026-05-06 17:55 | 55.69643 | 6.35005 | 37001 ft | 461 kts | 74° |
| 2026-05-06 17:56 | 55.71405 | 6.45819 | 36999 ft | 459 kts | 74° |
| 2026-05-06 17:56 | 55.73169 | 6.56695 | 37000 ft | 460 kts | 74° |
| 2026-05-06 17:57 | 55.74926 | 6.67597 | 36994 ft | 459 kts | 75° |
| 2026-05-06 17:57 | 55.76648 | 6.78355 | 36989 ft | 459 kts | 75° |
| 2026-05-06 17:58 | 55.78382 | 6.89253 | 36989 ft | 459 kts | 75° |
| 2026-05-06 17:58 | 55.80103 | 7.00141 | 36980 ft | 459 kts | 75° |
| 2026-05-06 17:59 | 55.81817 | 7.11061 | 36980 ft | 458 kts | 75° |
| 2026-05-06 17:59 | 55.83516 | 7.21949 | 36978 ft | 459 kts | 75° |
| 2026-05-06 18:00 | 55.85218 | 7.32930 | 36979 ft | 461 kts | 75° |
| 2026-05-06 18:00 | 55.86876 | 7.43700 | 36976 ft | 461 kts | 75° |
| 2026-05-06 18:01 | 55.88547 | 7.54626 | 36937 ft | 459 kts | 75° |
| 2026-05-06 18:01 | 55.89377 | 7.60079 | 36691 ft | 455 kts | 75° |
| 2026-05-06 18:01 | 55.90203 | 7.65520 | 36268 ft | 455 kts | 76° |
| 2026-05-06 18:02 | 55.91031 | 7.70999 | 35716 ft | 459 kts | 76° |
| 2026-05-06 18:02 | 55.91858 | 7.76495 | 35194 ft | 461 kts | 76° |
| 2026-05-06 18:02 | 55.92680 | 7.81965 | 34617 ft | 463 kts | 76° |
| 2026-05-06 18:02 | 55.93506 | 7.87484 | 34016 ft | 463 kts | 76° |
| 2026-05-06 18:03 | 55.94332 | 7.93017 | 33447 ft | 461 kts | 76° |
| 2026-05-06 18:03 | 55.95137 | 7.98430 | 32923 ft | 458 kts | 77° |
| 2026-05-06 18:03 | 55.95941 | 8.03850 | 32406 ft | 455 kts | 77° |
| 2026-05-06 18:03 | 55.96739 | 8.09251 | 31890 ft | 452 kts | 77° |
| 2026-05-06 18:04 | 55.97535 | 8.14649 | 31366 ft | 450 kts | 77° |
| 2026-05-06 18:04 | 55.98328 | 8.20058 | 30827 ft | 447 kts | 77° |
| 2026-05-06 18:04 | 55.99103 | 8.25359 | 30295 ft | 444 kts | 77° |
| 2026-05-06 18:04 | 55.99879 | 8.30686 | 29775 ft | 441 kts | 77° |
| 2026-05-06 18:05 | 56.00624 | 8.35815 | 29270 ft | 438 kts | 77° |
| 2026-05-06 18:05 | 56.01384 | 8.41063 | 28757 ft | 434 kts | 77° |
| 2026-05-06 18:05 | 56.02124 | 8.46190 | 28252 ft | 431 kts | 77° |
| 2026-05-06 18:05 | 56.02868 | 8.51369 | 27742 ft | 428 kts | 77° |
| 2026-05-06 18:06 | 56.03601 | 8.56479 | 27236 ft | 424 kts | 77° |
| 2026-05-06 18:06 | 56.04326 | 8.61557 | 26733 ft | 421 kts | 77° |
| 2026-05-06 18:06 | 56.05039 | 8.66570 | 26236 ft | 418 kts | 77° |
| 2026-05-06 18:06 | 56.05748 | 8.71562 | 25742 ft | 414 kts | 77° |
| 2026-05-06 18:07 | 56.06447 | 8.76506 | 25248 ft | 411 kts | 77° |
| 2026-05-06 18:07 | 56.07144 | 8.81452 | 24751 ft | 407 kts | 77° |
| 2026-05-06 18:07 | 56.07834 | 8.86355 | 24262 ft | 404 kts | 77° |
| 2026-05-06 18:07 | 56.08506 | 8.91158 | 23788 ft | 400 kts | 77° |
| 2026-05-06 18:08 | 56.09181 | 8.95987 | 23313 ft | 397 kts | 77° |
| 2026-05-06 18:08 | 56.09842 | 9.00735 | 22852 ft | 393 kts | 77° |
| 2026-05-06 18:08 | 56.10504 | 9.05508 | 22386 ft | 390 kts | 77° |
| 2026-05-06 18:08 | 56.11150 | 9.10178 | 21904 ft | 387 kts | 77° |
| 2026-05-06 18:09 | 56.11789 | 9.14802 | 21452 ft | 383 kts | 76° |
| 2026-05-06 18:09 | 56.12429 | 9.19456 | 20981 ft | 380 kts | 76° |
| 2026-05-06 18:09 | 56.13054 | 9.24013 | 20523 ft | 376 kts | 76° |
| 2026-05-06 18:09 | 56.13672 | 9.28526 | 20085 ft | 373 kts | 76° |
| 2026-05-06 18:10 | 56.14284 | 9.33006 | 19616 ft | 369 kts | 76° |
| 2026-05-06 18:10 | 56.14877 | 9.37368 | 19184 ft | 366 kts | 76° |
| 2026-05-06 18:10 | 56.15479 | 9.41804 | 18743 ft | 362 kts | 76° |
| 2026-05-06 18:10 | 56.16070 | 9.46172 | 18304 ft | 359 kts | 76° |
| 2026-05-06 18:11 | 56.16656 | 9.50523 | 17862 ft | 355 kts | 76° |
| 2026-05-06 18:11 | 56.17229 | 9.54780 | 17435 ft | 351 kts | 76° |
| 2026-05-06 18:11 | 56.17794 | 9.58992 | 17007 ft | 348 kts | 76° |
| 2026-05-06 18:11 | 56.18351 | 9.63158 | 16579 ft | 340 kts | 75° |
| 2026-05-06 18:12 | 56.18893 | 9.67218 | 16318 ft | 325 kts | 76° |
| 2026-05-06 18:12 | 56.19416 | 9.71140 | 16056 ft | 316 kts | 76° |
| 2026-05-06 18:12 | 56.19918 | 9.74928 | 15641 ft | 314 kts | 76° |
| 2026-05-06 18:12 | 56.20419 | 9.78730 | 15238 ft | 311 kts | 76° |
| 2026-05-06 18:13 | 56.20918 | 9.82501 | 14839 ft | 308 kts | 76° |
| 2026-05-06 18:13 | 56.21408 | 9.86208 | 14424 ft | 306 kts | 76° |
| 2026-05-06 18:13 | 56.21898 | 9.89919 | 14051 ft | 303 kts | 76° |
| 2026-05-06 18:13 | 56.22378 | 9.93575 | 13644 ft | 301 kts | 76° |
| 2026-05-06 18:14 | 56.22860 | 9.97247 | 13255 ft | 299 kts | 76° |
| 2026-05-06 18:14 | 56.23332 | 10.00861 | 12892 ft | 297 kts | 76° |
| 2026-05-06 18:14 | 56.23804 | 10.04441 | 12505 ft | 294 kts | 73° |
| 2026-05-06 18:14 | 56.24651 | 10.07714 | 12104 ft | 290 kts | 50° |
| 2026-05-06 18:15 | 56.26155 | 10.10022 | 11711 ft | 284 kts | 24° |
| 2026-05-06 18:15 | 56.28025 | 10.11052 | 11338 ft | 279 kts | 8° |
| 2026-05-06 18:15 | 56.29928 | 10.11512 | 11014 ft | 275 kts | 5° |
| 2026-05-06 18:15 | 56.31793 | 10.11865 | 10785 ft | 268 kts | 4° |
| 2026-05-06 18:16 | 56.33622 | 10.12194 | 10696 ft | 256 kts | 4° |
| 2026-05-06 18:16 | 56.35350 | 10.12496 | 10605 ft | 245 kts | 4° |
| 2026-05-06 18:16 | 56.37021 | 10.12762 | 10434 ft | 239 kts | 4° |
| 2026-05-06 18:16 | 56.38657 | 10.13040 | 10165 ft | 237 kts | 4° |
| 2026-05-06 18:17 | 56.40301 | 10.13324 | 9883 ft | 236 kts | 4° |
| 2026-05-06 18:17 | 56.41913 | 10.13601 | 9595 ft | 234 kts | 4° |
| 2026-05-06 18:17 | 56.43539 | 10.13884 | 9262 ft | 235 kts | 4° |
| 2026-05-06 18:17 | 56.45173 | 10.14172 | 9021 ft | 231 kts | 5° |
| 2026-05-06 18:18 | 56.46748 | 10.14456 | 8732 ft | 231 kts | 4° |
| 2026-05-06 18:18 | 56.48355 | 10.14741 | 8439 ft | 230 kts | 4° |
| 2026-05-06 18:18 | 56.49931 | 10.15020 | 8164 ft | 228 kts | 4° |
| 2026-05-06 18:18 | 56.51515 | 10.15303 | 7876 ft | 227 kts | 4° |
| 2026-05-06 18:19 | 56.53062 | 10.15578 | 7603 ft | 226 kts | 4° |
| 2026-05-06 18:19 | 56.54620 | 10.15851 | 7336 ft | 224 kts | 4° |
| 2026-05-06 18:19 | 56.56146 | 10.16497 | 7003 ft | 228 kts | 27° |
| 2026-05-06 18:19 | 56.57303 | 10.18405 | 6690 ft | 231 kts | 58° |
| 2026-05-06 18:20 | 56.57737 | 10.21184 | 6367 ft | 233 kts | 92° |
| 2026-05-06 18:20 | 56.57291 | 10.23961 | 6077 ft | 230 kts | 124° |
| 2026-05-06 18:20 | 56.56122 | 10.25842 | 5810 ft | 225 kts | 157° |
| 2026-05-06 18:20 | 56.54653 | 10.26321 | 5713 ft | 212 kts | 182° |
| 2026-05-06 18:21 | 56.53219 | 10.26205 | 5581 ft | 204 kts | 184° |
| 2026-05-06 18:21 | 56.51806 | 10.26056 | 5371 ft | 200 kts | 184° |
| 2026-05-06 18:21 | 56.50439 | 10.25911 | 5117 ft | 199 kts | 184° |
| 2026-05-06 18:21 | 56.49056 | 10.25752 | 4848 ft | 200 kts | 184° |
| 2026-05-06 18:22 | 56.47664 | 10.25576 | 4566 ft | 200 kts | 184° |
| 2026-05-06 18:22 | 56.46285 | 10.25391 | 4307 ft | 200 kts | 184° |
| 2026-05-06 18:22 | 56.44885 | 10.25195 | 4042 ft | 200 kts | 184° |
| 2026-05-06 18:22 | 56.43508 | 10.24993 | 3783 ft | 200 kts | 184° |
| 2026-05-06 18:23 | 56.42131 | 10.24783 | 3524 ft | 199 kts | 184° |
| 2026-05-06 18:23 | 56.40768 | 10.24570 | 3280 ft | 199 kts | 184° |
| 2026-05-06 18:23 | 56.39409 | 10.24353 | 3044 ft | 198 kts | 184° |
| 2026-05-06 18:23 | 56.38038 | 10.24131 | 2962 ft | 194 kts | 184° |
| 2026-05-06 18:24 | 56.36690 | 10.23920 | 2967 ft | 197 kts | 181° |
| 2026-05-06 18:24 | 56.35358 | 10.24397 | 2966 ft | 195 kts | 147° |
| 2026-05-06 18:24 | 56.34312 | 10.25923 | 2969 ft | 193 kts | 134° |
| 2026-05-06 18:24 | 56.33458 | 10.27746 | 2962 ft | 191 kts | 112° |
| 2026-05-06 18:25 | 56.33248 | 10.30061 | 2969 ft | 189 kts | 84° |
| 2026-05-06 18:25 | 56.33268 | 10.32448 | 2931 ft | 191 kts | 94° |
| 2026-05-06 18:25 | 56.33062 | 10.34821 | 2703 ft | 193 kts | 99° |
| 2026-05-06 18:25 | 56.32801 | 10.37182 | 2443 ft | 192 kts | 99° |
| 2026-05-06 18:26 | 56.32565 | 10.39538 | 2196 ft | 190 kts | 98° |
| 2026-05-06 18:26 | 56.32339 | 10.41876 | 1948 ft | 189 kts | 98° |
| 2026-05-06 18:26 | 56.32111 | 10.44163 | 1710 ft | 180 kts | 98° |
| 2026-05-06 18:26 | 56.31895 | 10.46323 | 1444 ft | 169 kts | 98° |
| 2026-05-06 18:27 | 56.31699 | 10.48299 | 1274 ft | 153 kts | 97° |
| 2026-05-06 18:27 | 56.31519 | 10.50096 | 1092 ft | 144 kts | 97° |
| 2026-05-06 18:27 | 56.31346 | 10.51845 | 907 ft | 142 kts | 97° |
| 2026-05-06 18:27 | 56.31167 | 10.53603 | 775 ft | 142 kts | 98° |
| 2026-05-06 18:28 | 56.30986 | 10.55350 | 656 ft | 143 kts | 96° |
| 2026-05-06 18:28 | 56.30822 | 10.57078 | 528 ft | 136 kts | 99° |
| 2026-05-06 18:28 | 56.30635 | 10.58780 | 289 ft | 142 kts | 98° |
| 2026-05-06 18:28 | 56.30464 | 10.60557 | 99 ft | 145 kts | 98° |
| 2026-05-06 18:29 | 56.30289 | 10.62237 | 139 ft | 142 kts | 99° |
| 2026-05-06 18:29 | 56.30077 | 10.63975 | 855 ft | 140 kts | 101° |
| 2026-05-06 18:29 | 56.29815 | 10.65769 | 1157 ft | 170 kts | 103° |
| 2026-05-06 18:29 | 56.29465 | 10.68030 | 1583 ft | 194 kts | 104° |
| 2026-05-06 18:30 | 56.29264 | 10.70678 | 1433 ft | 224 kts | 89° |
| 2026-05-06 18:30 | 56.29333 | 10.73326 | 1330 ft | 215 kts | 85° |
| 2026-05-06 18:30 | 56.29473 | 10.75913 | 1491 ft | 197 kts | 76° |
| 2026-05-06 18:30 | 56.29996 | 10.78137 | 1653 ft | 199 kts | 54° |
| 2026-05-06 18:31 | 56.30979 | 10.79897 | 1528 ft | 197 kts | 31° |
| 2026-05-06 18:31 | 56.32240 | 10.80777 | 2081 ft | 200 kts | 13° |
| 2026-05-06 18:31 | 56.33579 | 10.81104 | 1994 ft | 202 kts | 7° |
| 2026-05-06 18:31 | 56.35020 | 10.81385 | 1967 ft | 200 kts | 8° |
| 2026-05-06 18:32 | 56.36418 | 10.81688 | 1845 ft | 207 kts | 8° |
| 2026-05-06 18:32 | 56.37831 | 10.81968 | 1747 ft | 200 kts | 6° |
| 2026-05-06 18:32 | 56.39240 | 10.82133 | 1792 ft | 203 kts | 5° |
| 2026-05-06 18:32 | 56.40634 | 10.82264 | 1787 ft | 198 kts | 5° |
| 2026-05-06 18:33 | 56.42024 | 10.82398 | 1943 ft | 200 kts | 5° |
| 2026-05-06 18:33 | 56.43408 | 10.82526 | 1967 ft | 201 kts | 2° |
| 2026-05-06 18:33 | 56.44795 | 10.82291 | 1974 ft | 201 kts | 349° |
| 2026-05-06 18:33 | 56.46120 | 10.81467 | 1973 ft | 202 kts | 335° |
| 2026-05-06 18:34 | 56.47296 | 10.80096 | 1974 ft | 206 kts | 320° |
| 2026-05-06 18:34 | 56.48170 | 10.78003 | 1969 ft | 212 kts | 294° |
| 2026-05-06 18:34 | 56.48535 | 10.75447 | 1978 ft | 213 kts | 281° |
| 2026-05-06 18:34 | 56.48758 | 10.72776 | 1970 ft | 213 kts | 280° |
| 2026-05-06 18:35 | 56.48969 | 10.70135 | 1972 ft | 213 kts | 280° |
| 2026-05-06 18:35 | 56.49177 | 10.67498 | 1970 ft | 213 kts | 279° |
| 2026-05-06 18:35 | 56.49387 | 10.64850 | 1972 ft | 214 kts | 280° |
| 2026-05-06 18:35 | 56.49598 | 10.62172 | 1973 ft | 213 kts | 280° |
| 2026-05-06 18:36 | 56.49804 | 10.59522 | 1976 ft | 212 kts | 280° |
| 2026-05-06 18:36 | 56.50003 | 10.56918 | 1976 ft | 211 kts | 280° |
| 2026-05-06 18:36 | 56.50205 | 10.54259 | 1975 ft | 214 kts | 280° |
| 2026-05-06 18:36 | 56.50406 | 10.51609 | 1974 ft | 212 kts | 280° |
| 2026-05-06 18:37 | 56.50608 | 10.48965 | 1976 ft | 212 kts | 280° |
| 2026-05-06 18:37 | 56.50807 | 10.46341 | 1978 ft | 213 kts | 280° |
| 2026-05-06 18:37 | 56.51009 | 10.43667 | 1979 ft | 212 kts | 280° |
| 2026-05-06 18:37 | 56.51091 | 10.41027 | 1975 ft | 214 kts | 264° |
| 2026-05-06 18:38 | 56.50589 | 10.38489 | 1981 ft | 215 kts | 237° |
| 2026-05-06 18:38 | 56.49527 | 10.36649 | 1983 ft | 216 kts | 210° |
| 2026-05-06 18:38 | 56.48101 | 10.35806 | 1986 ft | 215 kts | 188° |
| 2026-05-06 18:38 | 56.46634 | 10.35507 | 1978 ft | 214 kts | 185° |
| 2026-05-06 18:39 | 56.45152 | 10.35245 | 1980 ft | 214 kts | 185° |
| 2026-05-06 18:39 | 56.43658 | 10.34974 | 1977 ft | 214 kts | 184° |
| 2026-05-06 18:39 | 56.42179 | 10.34702 | 1979 ft | 215 kts | 184° |
| 2026-05-06 18:40 | 56.39197 | 10.34157 | 1978 ft | 214 kts | 184° |
| 2026-05-06 18:40 | 56.37729 | 10.33891 | 1977 ft | 214 kts | 184° |
| 2026-05-06 18:40 | 56.36230 | 10.33624 | 1977 ft | 215 kts | 184° |
| 2026-05-06 18:40 | 56.34749 | 10.33359 | 1982 ft | 210 kts | 184° |
| 2026-05-06 18:41 | 56.33355 | 10.33105 | 1970 ft | 196 kts | 184° |
| 2026-05-06 18:41 | 56.32058 | 10.33402 | 1849 ft | 198 kts | 133° |
| 2026-05-06 18:41 | 56.31625 | 10.35601 | 1642 ft | 189 kts | 79° |
| 2026-05-06 18:41 | 56.32057 | 10.37713 | 1755 ft | 173 kts | 63° |
| 2026-05-06 18:42 | 56.32522 | 10.39697 | 1709 ft | 174 kts | 75° |
| 2026-05-06 18:42 | 56.32621 | 10.41829 | 1705 ft | 171 kts | 97° |
| 2026-05-06 18:42 | 56.32280 | 10.43885 | 1658 ft | 172 kts | 109° |
| 2026-05-06 18:42 | 56.31915 | 10.45867 | 1644 ft | 159 kts | 99° |
| 2026-05-06 18:43 | 56.31716 | 10.47710 | 1545 ft | 142 kts | 99° |
| 2026-05-06 18:43 | 56.31522 | 10.49455 | 1183 ft | 144 kts | 97° |
| 2026-05-06 18:43 | 56.31364 | 10.51289 | 947 ft | 150 kts | 96° |
| 2026-05-06 18:43 | 56.31204 | 10.53077 | 871 ft | 143 kts | 98° |
| 2026-05-06 18:44 | 56.31025 | 10.54813 | 707 ft | 133 kts | 97° |
| 2026-05-06 18:44 | 56.30877 | 10.56427 | 456 ft | 139 kts | 99° |
| 2026-05-06 18:44 | 56.30703 | 10.58134 | 361 ft | 135 kts | 98° |
| 2026-05-06 18:44 | 56.30542 | 10.59808 | 113 ft | 132 kts | 99° |
| 2026-05-06 18:45 | 56.30399 | 10.61266 | 81 ft | 91 kts | 98° |
| 2026-05-06 18:45 | 56.30322 | 10.62013 | 80 ft | 45 kts | 100° |
| 2026-05-06 18:45 | 56.30260 | 10.62624 | 78 ft | 49 kts | 99° |
| 2026-05-06 18:45 | 56.30336 | 10.62931 | 78 ft | 17 kts | 7° |
| 2026-05-06 18:46 | 56.30353 | 10.62935 | 78 ft | 0 kts | 8° |
| 2026-05-06 18:46 | 56.30413 | 10.62954 | 78 ft | 22 kts | 9° |
| 2026-05-06 18:47 | 56.30597 | 10.62995 | 77 ft | 22 kts | 335° |
| 2026-05-06 18:47 | 56.30638 | 10.62804 | 77 ft | 16 kts | 280° |
| 2026-05-06 18:47 | 56.30687 | 10.62661 | 77 ft | 13 kts | 350° |